createdAt,value
2023-03-05T00:01:15.336Z,8.53
2023-03-05T00:03:42.180Z,7.77
2023-03-05T00:06:09.592Z,8.67
2023-03-05T00:08:36.722Z,8.47
2023-03-05T00:11:06.944Z,9.43
2023-03-05T00:13:34.044Z,10.17
2023-03-05T00:16:04.601Z,10.97
2023-03-05T00:18:31.334Z,9.60
2023-03-05T00:20:58.210Z,7.50
2023-03-05T00:23:25.081Z,7.33
2023-03-05T00:25:51.942Z,7.50
2023-03-05T00:28:18.771Z,8.23
2023-03-05T00:30:45.482Z,7.20
2023-03-05T00:33:12.942Z,7.20
2023-03-05T00:35:44.562Z,7.30
2023-03-05T00:38:11.561Z,7.03
2023-03-05T00:40:39.852Z,8.00
2023-03-05T00:43:07.552Z,7.17
2023-03-05T00:45:34.215Z,7.57
2023-03-05T00:48:00.933Z,6.53
2023-03-05T00:50:27.986Z,7.70
2023-03-05T00:52:55.619Z,7.13
2023-03-05T00:55:22.387Z,6.83
2023-03-05T00:57:49.172Z,8.07
2023-03-05T01:00:16.842Z,7.40
2023-03-05T01:02:43.537Z,7.63
2023-03-05T01:05:12.898Z,7.03
2023-03-05T01:07:40.303Z,7.27
2023-03-05T01:10:08.427Z,7.83
2023-03-05T01:12:35.106Z,7.30
2023-03-05T01:15:02.235Z,7.50
2023-03-05T01:17:28.866Z,7.60
2023-03-05T01:19:55.680Z,8.00
2023-03-05T01:22:22.367Z,7.20
2023-03-05T01:24:49.078Z,6.93
2023-03-05T01:27:15.701Z,6.77
2023-03-05T01:29:42.337Z,7.77
2023-03-05T01:32:08.989Z,6.40
2023-03-05T01:34:37.820Z,6.93
2023-03-05T01:37:04.640Z,7.00
2023-03-05T01:39:31.368Z,6.87
2023-03-05T01:41:57.978Z,6.57
2023-03-05T01:44:28.034Z,6.13
2023-03-05T01:46:55.015Z,6.57
2023-03-05T01:49:27.906Z,6.40
2023-03-05T01:52:20.707Z,7.77
2023-03-05T01:54:52.956Z,6.33
2023-03-05T01:57:35.294Z,7.37
2023-03-05T02:00:12.805Z,6.57
2023-03-05T02:02:39.453Z,7.03
2023-03-05T02:05:20.674Z,6.63
2023-03-05T02:07:47.525Z,6.30
2023-03-05T02:10:21.526Z,6.43
2023-03-05T02:12:50.262Z,6.73
2023-03-05T02:15:18.058Z,7.83
2023-03-05T02:17:45.370Z,9.20
2023-03-05T02:20:27.509Z,7.77
2023-03-05T02:22:54.579Z,7.50
2023-03-05T02:25:24.652Z,7.57
2023-03-05T02:28:03.858Z,6.80
2023-03-05T02:30:31.456Z,5.87
2023-03-05T02:32:58.780Z,7.40
2023-03-05T02:35:25.915Z,6.07
2023-03-05T02:37:52.604Z,6.43
2023-03-05T02:40:19.298Z,7.10
2023-03-05T02:42:46.736Z,6.50
2023-03-05T02:45:13.905Z,5.63
2023-03-05T02:47:41.055Z,6.50
2023-03-05T02:50:10.380Z,7.67
2023-03-05T02:52:37.592Z,7.83
2023-03-05T02:55:05.054Z,6.23
2023-03-05T02:57:31.698Z,7.40
2023-03-05T02:59:58.349Z,6.07
2023-03-05T03:02:25.087Z,6.30
2023-03-05T03:04:51.703Z,6.33
2023-03-05T03:07:18.487Z,8.10
2023-03-05T03:09:45.113Z,6.83
2023-03-05T03:12:12.227Z,7.73
2023-03-05T03:14:41.311Z,7.43
2023-03-05T03:17:16.702Z,6.17
2023-03-05T03:19:44.598Z,8.13
2023-03-05T03:22:12.985Z,7.53
2023-03-05T03:24:43.096Z,7.27
2023-03-05T03:27:09.917Z,8.20
2023-03-05T03:29:36.916Z,7.00
2023-03-05T03:32:04.841Z,8.20
2023-03-05T03:34:31.561Z,7.50
2023-03-05T03:36:58.356Z,7.50
2023-03-05T03:39:25.516Z,8.17
2023-03-05T03:41:53.647Z,6.90
2023-03-05T03:44:21.507Z,8.77
2023-03-05T03:46:49.651Z,8.23
2023-03-05T03:49:22.380Z,8.60
2023-03-05T03:51:50.255Z,7.47
2023-03-05T03:54:20.689Z,7.50
2023-03-05T03:56:47.965Z,8.13
2023-03-05T03:59:14.910Z,8.37
2023-03-05T04:01:41.782Z,7.40
2023-03-05T04:04:08.958Z,8.73
2023-03-05T04:06:35.734Z,7.77
2023-03-05T04:09:02.346Z,8.47
2023-03-05T04:11:28.966Z,7.30
2023-03-05T04:13:55.721Z,8.00
2023-03-05T04:16:22.458Z,8.87
2023-03-05T04:18:49.169Z,7.53
2023-03-05T04:21:15.963Z,8.10
2023-03-05T04:23:42.650Z,8.43
2023-03-05T04:26:09.365Z,7.20
2023-03-05T04:28:36.275Z,8.07
2023-03-05T04:31:05.247Z,8.80
2023-03-05T04:33:32.431Z,9.43
2023-03-05T04:35:59.202Z,8.10
2023-03-05T04:38:25.862Z,10.00
2023-03-05T04:40:52.432Z,6.93
2023-03-05T04:43:24.093Z,8.43
2023-03-05T04:46:00.403Z,6.70
2023-03-05T04:48:27.167Z,8.57
2023-03-05T04:50:53.906Z,8.03
2023-03-05T04:53:20.599Z,7.40
2023-03-05T04:55:52.679Z,9.07
2023-03-05T04:58:19.310Z,7.57
2023-03-05T05:00:46.238Z,8.20
2023-03-05T05:03:13.025Z,7.53
2023-03-05T05:05:39.652Z,8.60
2023-03-05T05:08:06.565Z,8.37
2023-03-05T05:10:33.600Z,7.23
2023-03-05T05:13:00.185Z,8.03
2023-03-05T05:15:26.818Z,8.20
2023-03-05T05:17:53.641Z,8.63
2023-03-05T05:20:20.415Z,8.37
2023-03-05T05:22:47.119Z,7.77
2023-03-05T05:25:13.827Z,8.43
2023-03-05T05:27:40.792Z,8.87
2023-03-05T05:30:08.220Z,7.17
2023-03-05T05:32:35.003Z,8.63
2023-03-05T05:35:02.300Z,7.03
2023-03-05T05:37:29.666Z,7.57
2023-03-05T05:39:56.423Z,7.63
2023-03-05T05:42:24.750Z,7.70
2023-03-05T05:44:51.395Z,6.43
2023-03-05T05:47:18.460Z,6.37
2023-03-05T05:49:45.331Z,8.23
2023-03-05T05:52:13.519Z,6.50
2023-03-05T05:54:40.434Z,6.27
2023-03-05T05:57:07.512Z,6.67
2023-03-05T05:59:34.146Z,6.43
2023-03-05T06:02:00.897Z,7.27
2023-03-05T06:04:27.622Z,5.90
2023-03-05T06:06:54.181Z,6.90
2023-03-05T06:09:21.186Z,7.83
2023-03-05T06:11:48.070Z,6.70
2023-03-05T06:14:17.536Z,7.07
2023-03-05T06:16:44.369Z,6.40
2023-03-05T06:19:15.797Z,6.10
2023-03-05T06:21:43.941Z,5.60
2023-03-05T06:24:10.957Z,6.97
2023-03-05T06:26:37.713Z,7.10
2023-03-05T06:29:04.528Z,5.90
2023-03-05T06:31:31.357Z,5.83
2023-03-05T06:34:03.239Z,5.57
2023-03-05T06:36:30.386Z,5.97
2023-03-05T06:38:57.505Z,6.90
2023-03-05T06:41:28.400Z,6.73
2023-03-05T06:43:57.418Z,5.10
2023-03-05T06:46:25.094Z,6.77
2023-03-05T06:48:52.601Z,5.10
2023-03-05T06:51:22.639Z,6.07
2023-03-05T06:53:49.740Z,5.13
2023-03-05T06:56:17.071Z,6.60
2023-03-05T06:58:45.969Z,6.63
2023-03-05T07:01:13.385Z,6.07
2023-03-05T07:03:41.033Z,6.80
2023-03-05T07:06:09.995Z,6.40
2023-03-05T07:08:37.618Z,7.00
2023-03-05T07:11:04.508Z,5.87
2023-03-05T07:13:31.071Z,6.97
2023-03-05T07:15:57.849Z,6.67
2023-03-05T07:18:24.467Z,7.50
2023-03-05T07:20:51.909Z,7.50
2023-03-05T07:23:18.531Z,7.57
2023-03-05T07:25:45.271Z,7.40
2023-03-05T07:28:11.929Z,7.93
2023-03-05T07:30:38.601Z,6.03
2023-03-05T07:33:05.255Z,7.77
2023-03-05T07:35:32.005Z,7.20
2023-03-05T07:37:58.640Z,7.53
2023-03-05T07:40:25.279Z,7.70
2023-03-05T07:42:52.384Z,9.13
2023-03-05T07:45:19.088Z,9.17
2023-03-05T07:47:45.689Z,9.40
2023-03-05T07:50:12.448Z,7.27
2023-03-05T07:52:39.018Z,8.27
2023-03-05T07:55:06.664Z,8.07
2023-03-05T07:57:35.549Z,8.43
2023-03-05T08:00:02.371Z,7.90
2023-03-05T08:02:29.775Z,8.90
2023-03-05T08:04:56.488Z,9.00
2023-03-05T08:07:23.396Z,9.10
2023-03-05T08:09:50.032Z,7.93
2023-03-05T08:12:16.662Z,8.47
2023-03-05T08:14:43.888Z,9.53
2023-03-05T08:17:10.478Z,9.00
2023-03-05T08:19:37.082Z,9.30
2023-03-05T08:22:03.721Z,9.10
2023-03-05T08:24:30.559Z,9.20
2023-03-05T08:26:58.348Z,8.87
2023-03-05T08:29:27.610Z,8.60
2023-03-05T08:31:54.557Z,8.97
2023-03-05T08:34:22.075Z,9.03
2023-03-05T08:36:49.223Z,10.47
2023-03-05T08:39:16.428Z,9.23
2023-03-05T08:41:43.072Z,9.80
2023-03-05T08:44:09.945Z,9.30
2023-03-05T08:46:40.210Z,9.17
2023-03-05T08:49:07.814Z,7.17
2023-03-05T08:51:35.891Z,11.53
2023-03-05T08:54:07.085Z,12.33
2023-03-05T08:56:35.444Z,12.07
2023-03-05T08:59:03.545Z,9.00
2023-03-05T09:01:32.013Z,9.83
2023-03-05T09:04:00.061Z,9.17
2023-03-05T09:06:27.584Z,7.87
2023-03-05T09:08:54.457Z,8.10
2023-03-05T09:11:21.887Z,7.97
2023-03-05T09:13:48.466Z,8.27
2023-03-05T09:16:17.930Z,9.73
2023-03-05T09:18:45.039Z,8.17
2023-03-05T09:21:14.080Z,9.77
2023-03-05T09:23:41.580Z,8.77
2023-03-05T09:26:10.014Z,8.53
2023-03-05T09:28:36.846Z,7.90
2023-03-05T09:31:05.316Z,9.20
2023-03-05T09:33:33.160Z,8.07
2023-03-05T09:36:00.954Z,9.27
2023-03-05T09:38:28.069Z,7.87
2023-03-05T09:41:16.654Z,8.93
2023-03-05T09:44:02.014Z,8.47
2023-03-05T09:46:39.125Z,8.33
2023-03-05T09:49:14.600Z,7.60
2023-03-05T09:51:43.074Z,7.97
2023-03-05T09:54:20.244Z,8.57
2023-03-05T09:56:59.198Z,7.87
2023-03-05T09:59:28.924Z,8.00
2023-03-05T10:02:11.620Z,7.83
2023-03-05T10:04:47.914Z,8.17
2023-03-05T10:07:27.528Z,7.47
2023-03-05T10:10:01.301Z,7.47
2023-03-05T10:12:39.104Z,7.27
2023-03-05T10:15:12.468Z,7.27
2023-03-05T10:18:34.861Z,7.70
2023-03-05T10:21:08.001Z,6.37
2023-03-05T10:23:34.590Z,7.00
2023-03-05T10:26:08.564Z,7.20
2023-03-05T10:28:56.294Z,5.80
2023-03-05T10:31:38.447Z,6.53
2023-03-05T10:34:35.645Z,6.63
2023-03-05T10:37:27.742Z,5.20
2023-03-05T10:40:13.077Z,6.17
2023-03-05T10:42:51.908Z,6.70
2023-03-05T10:45:23.132Z,8.30
2023-03-05T10:47:55.583Z,7.20
2023-03-05T10:50:26.787Z,6.63
2023-03-05T10:53:05.745Z,7.03
2023-03-05T10:55:32.529Z,6.13
2023-03-05T10:57:59.215Z,5.57
2023-03-05T11:00:32.353Z,6.30
2023-03-05T11:03:00.593Z,5.20
2023-03-05T11:05:42.109Z,5.77
2023-03-05T11:08:23.271Z,6.73
2023-03-05T11:11:14.982Z,5.20
2023-03-05T11:13:52.203Z,5.90
2023-03-05T11:16:26.975Z,5.40
2023-03-05T11:19:18.816Z,5.90
2023-03-05T11:21:47.923Z,5.87
2023-03-05T11:24:16.344Z,6.90
2023-03-05T11:26:52.421Z,6.00
2023-03-05T11:29:27.910Z,5.80
2023-03-05T11:31:54.993Z,5.97
2023-03-05T11:34:31.394Z,6.37
2023-03-05T11:36:57.979Z,5.77
2023-03-05T11:39:26.147Z,6.33
2023-03-05T11:41:56.127Z,7.47
2023-03-05T11:44:27.112Z,6.40
2023-03-05T11:47:02.483Z,7.07
2023-03-05T11:49:32.940Z,6.47
2023-03-05T11:52:03.497Z,6.57
2023-03-05T11:54:39.217Z,6.13
2023-03-05T11:57:06.454Z,5.63
2023-03-05T11:59:40.620Z,6.00
2023-03-05T12:02:21.022Z,6.17
2023-03-05T12:04:48.940Z,6.13
2023-03-05T12:07:22.738Z,5.80
2023-03-05T12:09:52.483Z,7.00
2023-03-05T12:12:37.585Z,6.57
2023-03-05T12:15:29.224Z,9.30
2023-03-05T12:18:13.783Z,6.97
2023-03-05T12:21:07.325Z,6.67
2023-03-05T12:23:54.017Z,5.17
2023-03-05T12:27:06.156Z,5.93
2023-03-05T12:29:41.426Z,8.37
2023-03-05T12:32:25.481Z,6.53
2023-03-05T12:35:06.297Z,5.07
2023-03-05T12:37:32.845Z,5.63
2023-03-05T12:40:08.665Z,5.63
2023-03-05T12:42:35.516Z,6.27
2023-03-05T12:45:16.988Z,6.80
2023-03-05T12:47:56.292Z,6.33
2023-03-05T12:50:28.936Z,5.87
2023-03-05T12:52:57.822Z,5.53
2023-03-05T12:55:33.558Z,9.70
2023-03-05T12:58:04.885Z,12.33
2023-03-05T13:00:43.287Z,13.90
2023-03-05T13:03:20.059Z,6.90
2023-03-05T13:06:06.757Z,5.77
2023-03-05T13:08:36.197Z,5.93
2023-03-05T13:11:13.565Z,6.13
2023-03-05T13:13:52.734Z,5.60
2023-03-05T13:16:39.330Z,4.80
2023-03-05T13:19:16.976Z,4.60
2023-03-05T13:21:43.945Z,5.63
2023-03-05T13:24:18.804Z,5.30
2023-03-05T13:26:45.753Z,5.57
2023-03-05T13:29:18.779Z,5.80
2023-03-05T13:32:15.934Z,6.10
2023-03-05T13:34:48.103Z,7.03
2023-03-05T13:37:19.113Z,7.13
2023-03-05T13:40:02.247Z,6.83
2023-03-05T13:42:34.800Z,5.67
2023-03-05T13:45:02.589Z,5.67
2023-03-05T13:47:34.455Z,7.20
2023-03-05T13:50:07.560Z,6.60
2023-03-05T13:52:37.060Z,6.33
2023-03-05T13:55:16.983Z,5.97
2023-03-05T13:57:53.062Z,7.10
2023-03-05T14:00:37.120Z,8.60
2023-03-05T14:03:30.159Z,7.27
2023-03-05T14:05:56.916Z,8.13
2023-03-05T14:08:27.425Z,6.67
2023-03-05T14:10:57.304Z,7.30
2023-03-05T14:13:27.237Z,6.93
2023-03-05T14:16:10.525Z,6.83
2023-03-05T14:18:37.777Z,9.53
2023-03-05T14:21:11.672Z,8.63
2023-03-05T14:23:46.941Z,8.83
2023-03-05T14:26:19.313Z,11.47
2023-03-05T14:28:55.854Z,7.63
2023-03-05T14:31:24.498Z,13.10
2023-03-05T14:33:52.171Z,12.20
2023-03-05T14:36:24.684Z,14.40
2023-03-05T14:38:52.409Z,6.80
2023-03-05T14:41:33.328Z,9.10
2023-03-05T14:44:00.111Z,6.73
2023-03-05T14:46:27.240Z,7.60
2023-03-05T14:48:54.424Z,7.43
2023-03-05T14:51:22.267Z,6.90
2023-03-05T14:53:51.133Z,6.20
2023-03-05T14:56:26.770Z,7.10
2023-03-05T14:58:53.876Z,6.27
2023-03-05T15:01:20.773Z,6.47
2023-03-05T15:03:47.402Z,7.40
2023-03-05T15:06:28.614Z,6.67
2023-03-05T15:08:55.190Z,6.97
2023-03-05T15:11:22.768Z,6.57
2023-03-05T15:13:52.382Z,6.93
2023-03-05T15:16:19.811Z,6.97
2023-03-05T15:18:46.523Z,6.70
2023-03-05T15:21:13.222Z,6.73
2023-03-05T15:23:39.827Z,6.43
2023-03-05T15:26:09.472Z,6.57
2023-03-05T15:28:38.750Z,7.63
2023-03-05T15:31:06.630Z,5.43
2023-03-05T15:33:33.938Z,7.93
2023-03-05T15:36:01.074Z,7.07
2023-03-05T15:38:27.737Z,11.57
2023-03-05T15:40:54.417Z,21.23
2023-03-05T15:43:21.213Z,12.47
2023-03-05T15:45:48.225Z,7.67
2023-03-05T15:48:15.062Z,21.00
2023-03-05T15:50:43.702Z,6.57
2023-03-05T15:53:13.465Z,8.27
2023-03-05T15:55:40.979Z,6.90
2023-03-05T15:58:08.042Z,8.57
2023-03-05T16:00:37.048Z,6.17
2023-03-05T16:03:04.324Z,6.03
2023-03-05T16:05:31.293Z,5.80
2023-03-05T16:07:59.952Z,6.30
2023-03-05T16:10:29.446Z,6.37
2023-03-05T16:13:09.803Z,6.87
2023-03-05T16:15:40.188Z,6.67
2023-03-05T16:18:09.407Z,6.47
2023-03-05T16:20:36.396Z,6.03
2023-03-05T16:23:04.568Z,5.97
2023-03-05T16:25:31.467Z,9.80
2023-03-05T16:27:58.094Z,7.40
2023-03-05T16:30:24.812Z,4.97
2023-03-05T16:32:53.640Z,6.50
2023-03-05T16:35:20.708Z,6.40
2023-03-05T16:37:47.759Z,6.23
2023-03-05T16:40:14.833Z,5.17
2023-03-05T16:42:42.578Z,6.03
2023-03-05T16:45:10.891Z,5.30
2023-03-05T16:47:38.109Z,5.07
2023-03-05T16:50:05.672Z,5.83
2023-03-05T16:52:32.366Z,6.57
2023-03-05T16:54:59.000Z,6.23
2023-03-05T16:57:25.897Z,7.10
2023-03-05T16:59:54.196Z,6.57
2023-03-05T17:02:21.093Z,5.53
2023-03-05T17:04:48.973Z,6.57
2023-03-05T17:07:15.726Z,6.60
2023-03-05T17:09:42.439Z,6.20
2023-03-05T17:12:09.110Z,5.50
2023-03-05T17:14:35.693Z,5.80
2023-03-05T17:17:02.454Z,5.53
2023-03-05T17:19:29.022Z,6.20
2023-03-05T17:21:55.646Z,5.47
2023-03-05T17:24:22.808Z,7.03
2023-03-05T17:26:49.945Z,7.20
2023-03-05T17:29:18.973Z,5.27
2023-03-05T17:31:46.794Z,6.20
2023-03-05T17:34:13.585Z,5.50
2023-03-05T17:36:40.260Z,5.33
2023-03-05T17:39:06.952Z,5.07
2023-03-05T17:41:33.545Z,5.63
2023-03-05T17:44:00.222Z,5.00
2023-03-05T17:46:26.825Z,5.13
2023-03-05T17:48:53.460Z,5.30
2023-03-05T17:51:20.015Z,5.10
2023-03-05T17:53:47.500Z,5.50
2023-03-05T17:56:17.088Z,5.30
2023-03-05T17:58:43.821Z,5.50
2023-03-05T18:01:10.510Z,4.07
2023-03-05T18:03:37.645Z,5.50
2023-03-05T18:06:05.093Z,5.13
2023-03-05T18:08:32.082Z,5.53
2023-03-05T18:10:58.759Z,4.57
2023-03-05T18:13:25.374Z,5.20
2023-03-05T18:15:52.033Z,5.00
2023-03-05T18:18:18.722Z,5.00
2023-03-05T18:20:45.813Z,4.73
2023-03-05T18:23:13.016Z,4.43
2023-03-05T18:25:39.656Z,5.47
2023-03-05T18:28:11.750Z,6.20
2023-03-05T18:30:40.610Z,7.03
2023-03-05T18:33:09.055Z,5.63
2023-03-05T18:35:36.811Z,6.13
2023-03-05T18:38:03.440Z,5.53
2023-03-05T18:40:32.601Z,5.17
2023-03-05T18:43:01.141Z,5.03
2023-03-05T18:45:28.988Z,5.03
2023-03-05T18:47:56.762Z,4.37
2023-03-05T18:50:25.785Z,4.40
2023-03-05T18:52:52.816Z,4.93
2023-03-05T18:55:25.097Z,4.43
2023-03-05T18:57:52.021Z,4.63
2023-03-05T19:00:21.366Z,4.50
2023-03-05T19:02:48.378Z,5.37
2023-03-05T19:05:16.169Z,5.90
2023-03-05T19:07:43.060Z,4.97
2023-03-05T19:10:12.310Z,4.27
2023-03-05T19:13:00.056Z,4.60
2023-03-05T19:15:26.820Z,4.97
2023-03-05T19:17:54.875Z,4.80
2023-03-05T19:20:21.482Z,5.10
2023-03-05T19:22:50.843Z,5.03
2023-03-05T19:25:17.934Z,6.00
2023-03-05T19:27:44.540Z,21.47
2023-03-05T19:30:12.091Z,9.73
2023-03-05T19:32:38.803Z,6.73
2023-03-05T19:35:05.879Z,4.57
2023-03-05T19:37:32.703Z,5.47
2023-03-05T19:39:59.649Z,5.03
2023-03-05T19:42:26.265Z,4.90
2023-03-05T19:44:53.721Z,4.27
2023-03-05T19:47:20.625Z,4.57
2023-03-05T19:49:47.577Z,5.47
2023-03-05T19:52:14.232Z,4.60
2023-03-05T19:54:41.018Z,5.30
2023-03-05T19:57:07.711Z,6.63
2023-03-05T19:59:34.470Z,6.20
2023-03-05T20:02:01.192Z,5.43
2023-03-05T20:04:28.229Z,5.70
2023-03-05T20:06:54.811Z,4.47
2023-03-05T20:09:21.670Z,4.87
2023-03-05T20:11:48.568Z,7.57
2023-03-05T20:14:15.334Z,4.43
2023-03-05T20:16:43.478Z,5.40
2023-03-05T20:19:16.307Z,4.50
2023-03-05T20:21:44.010Z,5.03
2023-03-05T20:24:13.273Z,4.23
2023-03-05T20:26:41.276Z,4.80
2023-03-05T20:29:09.124Z,4.53
2023-03-05T20:31:37.374Z,4.27
2023-03-05T20:34:06.086Z,4.60
2023-03-05T20:36:34.636Z,4.83
2023-03-05T20:39:03.170Z,4.77
2023-03-05T20:41:31.385Z,4.20
2023-03-05T20:43:58.286Z,3.63
2023-03-05T20:46:28.380Z,4.10
2023-03-05T20:48:57.742Z,4.50
2023-03-05T20:51:27.920Z,4.83
2023-03-05T20:53:58.586Z,5.30
2023-03-05T20:56:27.981Z,6.03
2023-03-05T20:58:55.864Z,5.90
2023-03-05T21:01:22.714Z,5.03
2023-03-05T21:03:49.793Z,6.70
2023-03-05T21:06:16.585Z,5.17
2023-03-05T21:08:43.839Z,4.97
2023-03-05T21:11:11.353Z,4.40
2023-03-05T21:13:38.366Z,5.83
2023-03-05T21:16:10.814Z,5.03
2023-03-05T21:18:37.586Z,4.70
2023-03-05T21:21:04.404Z,5.87
2023-03-05T21:23:31.930Z,5.50
2023-03-05T21:25:58.855Z,5.23
2023-03-05T21:28:25.545Z,7.00
2023-03-05T21:30:54.456Z,6.83
2023-03-05T21:33:27.065Z,3.93
2023-03-05T21:35:54.768Z,4.90
2023-03-05T21:38:23.241Z,4.77
2023-03-05T21:40:50.820Z,5.60
2023-03-05T21:43:20.294Z,4.27
2023-03-05T21:46:00.068Z,4.67
2023-03-05T21:48:28.427Z,4.90
2023-03-05T21:50:55.460Z,4.97
2023-03-05T21:53:22.863Z,5.07
2023-03-05T21:56:02.587Z,3.40
2023-03-05T21:58:33.868Z,4.70
2023-03-05T22:01:01.043Z,4.37
2023-03-05T22:03:28.410Z,3.87
2023-03-05T22:05:55.857Z,5.00
2023-03-05T22:08:23.813Z,4.40
2023-03-05T22:10:50.681Z,5.53
2023-03-05T22:13:19.975Z,4.70
2023-03-05T22:15:56.606Z,5.57
2023-03-05T22:18:28.697Z,4.63
2023-03-05T22:20:57.828Z,5.13
2023-03-05T22:23:29.929Z,4.20
2023-03-05T22:25:58.429Z,4.43
2023-03-05T22:28:25.895Z,4.90
2023-03-05T22:30:52.742Z,3.87
2023-03-05T22:33:21.894Z,5.23
2023-03-05T22:35:49.470Z,5.67
2023-03-05T22:38:16.355Z,3.47
2023-03-05T22:40:45.684Z,4.23
2023-03-05T22:43:13.633Z,5.83
2023-03-05T22:45:40.859Z,4.20
2023-03-05T22:48:09.891Z,4.67
2023-03-05T22:50:41.618Z,4.23
2023-03-05T22:53:08.704Z,7.13
2023-03-05T22:55:39.502Z,6.47
2023-03-05T22:58:06.231Z,5.13
2023-03-05T23:00:33.018Z,5.93
2023-03-05T23:02:59.628Z,4.63
2023-03-05T23:05:26.291Z,4.63
2023-03-05T23:07:52.947Z,5.73
2023-03-05T23:10:23.476Z,6.27
2023-03-05T23:12:53.128Z,4.57
2023-03-05T23:15:26.564Z,5.47
2023-03-05T23:17:54.049Z,4.43
2023-03-05T23:20:23.081Z,4.67
2023-03-05T23:22:52.990Z,5.00
2023-03-05T23:25:20.776Z,6.23
2023-03-05T23:27:47.785Z,4.90
2023-03-05T23:30:31.569Z,4.27
2023-03-05T23:33:00.083Z,4.87
2023-03-05T23:35:36.182Z,4.87
2023-03-05T23:38:06.204Z,5.27
2023-03-05T23:40:35.591Z,4.67
2023-03-05T23:43:02.370Z,4.23
2023-03-05T23:45:29.746Z,4.77
2023-03-05T23:47:56.905Z,5.07
2023-03-05T23:50:30.354Z,5.07
2023-03-05T23:52:57.447Z,5.70
2023-03-05T23:55:30.382Z,5.20
2023-03-05T23:57:57.017Z,5.07
